Time;durP1;ratioP1;P1;durP2;ratioP2;P2;SDS_P1;SDS_P2;PMS_P1;PMS_P2;Temp;Humidity;BMP_temperature;BMP_pressure;BME280_temperature;BME280_humidity;BME280_pressure;Samples;Min_cycle;Max_cycle;Signal;HPM_P1;HPM_P2
2022/05/02 00:00:25;;;;;;;2.90;2.45;;;;;;;;;;4403706;29;20080;-69
2022/05/02 00:02:37;;;;;;;3.17;1.87;;;;;;;;;;4403727;29;20482;-69
2022/05/02 00:04:47;;;;;;;4.03;2.10;;;;;;;;;;4404620;29;20071;-69
2022/05/02 00:06:57;;;;;;;3.27;2.07;;;;;;;;;;4402926;29;20136;-69
2022/05/02 00:09:08;;;;;;;2.23;1.87;;;;;;;;;;4404333;28;20040;-69
2022/05/02 00:11:18;;;;;;;3.33;2.03;;;;;;;;;;4402811;29;20036;-69
2022/05/02 00:13:29;;;;;;;2.53;2.00;;;;;;;;;;4401885;29;27560;-69
2022/05/02 00:15:39;;;;;;;1.90;1.70;;;;;;;;;;4403457;29;42295;-69
2022/05/02 00:17:56;;;;;;;2.77;2.00;;;;;;;;;;4403892;29;20044;-69
2022/05/02 00:20:07;;;;;;;2.15;1.85;;;;;;;;;;4417684;28;20840;-69
2022/05/02 00:22:17;;;;;;;3.38;2.20;;;;;;;;;;4405424;29;20028;-69
2022/05/02 00:24:28;;;;;;;2.97;1.73;;;;;;;;;;4403239;29;24261;-69
2022/05/02 00:26:38;;;;;;;2.53;1.90;;;;;;;;;;4403732;29;20033;-69
2022/05/02 00:28:49;;;;;;;3.50;2.17;;;;;;;;;;4404041;28;20032;-69
2022/05/02 00:30:59;;;;;;;2.80;1.87;;;;;;;;;;4396219;29;20051;-69
2022/05/02 00:33:10;;;;;;;2.07;1.63;;;;;;;;;;4402981;29;20044;-69
2022/05/02 00:35:21;;;;;;;2.35;2.08;;;;;;;;;;4418312;28;21309;-69
2022/05/02 00:37:31;;;;;;;2.90;2.00;;;;;;;;;;4403446;29;20087;-69
2022/05/02 00:39:42;;;;;;;2.10;1.90;;;;;;;;;;4403227;29;20133;-69
2022/05/02 00:41:52;;;;;;;3.50;2.10;;;;;;;;;;4403306;29;20707;-69
2022/05/02 00:44:03;;;;;;;3.10;1.90;;;;;;;;;;4402671;28;20072;-70
2022/05/02 00:46:21;;;;;;;3.10;2.30;;;;;;;;;;4402652;29;20127;-69
2022/05/02 00:48:31;;;;;;;3.15;2.33;;;;;;;;;;4402890;29;20187;-69
2022/05/02 00:50:47;;;;;;;2.37;2.07;;;;;;;;;;4403709;28;20091;-69
2022/05/02 00:52:57;;;;;;;3.63;2.25;;;;;;;;;;4404323;29;20076;-69
2022/05/02 00:55:08;;;;;;;3.53;2.27;;;;;;;;;;4402261;28;37764;-70
2022/05/02 00:57:18;;;;;;;3.27;2.10;;;;;;;;;;4403948;29;20033;-69
2022/05/02 00:59:29;;;;;;;2.33;1.90;;;;;;;;;;4403448;29;20032;-70
2022/05/02 01:01:40;;;;;;;2.40;1.90;;;;;;;;;;4390849;29;21655;-69
2022/05/02 01:03:51;;;;;;;3.08;2.40;;;;;;;;;;4410812;29;20915;-69
2022/05/02 01:08:32;;;;;;;3.30;2.05;;;;;;;;;;4410615;29;21126;-69
2022/05/02 01:10:43;;;;;;;2.70;2.08;;;;;;;;;;4403674;29;20628;-69
2022/05/02 01:12:56;;;;;;;3.90;2.40;;;;;;;;;;4401918;29;37374;-70
2022/05/02 01:15:07;;;;;;;2.67;1.98;;;;;;;;;;4402423;29;20599;-69
2022/05/02 01:17:18;;;;;;;3.07;2.33;;;;;;;;;;4402743;29;20073;-69
2022/05/02 01:19:28;;;;;;;3.40;2.60;;;;;;;;;;4401591;29;20071;-71
2022/05/02 01:21:40;;;;;;;3.63;2.40;;;;;;;;;;4403997;29;20776;-70
2022/05/02 01:23:52;;;;;;;4.03;2.55;;;;;;;;;;4401914;29;20244;-69
2022/05/02 01:26:02;;;;;;;2.40;2.05;;;;;;;;;;4403458;29;20139;-69
2022/05/02 01:28:13;;;;;;;3.90;2.47;;;;;;;;;;4404459;29;20045;-69
2022/05/02 01:30:23;;;;;;;2.77;2.30;;;;;;;;;;4404679;29;40089;-69
2022/05/02 01:32:34;;;;;;;3.03;2.10;;;;;;;;;;4405239;29;20091;-69
2022/05/02 01:34:44;;;;;;;2.60;2.13;;;;;;;;;;4406030;29;20036;-69
2022/05/02 01:36:56;;;;;;;2.80;2.20;;;;;;;;;;4409934;28;20161;-69
2022/05/02 01:39:06;;;;;;;3.53;2.28;;;;;;;;;;4404793;29;20043;-69
2022/05/02 01:41:16;;;;;;;3.37;2.03;;;;;;;;;;4404290;29;26659;-70
2022/05/02 01:43:27;;;;;;;4.20;2.53;;;;;;;;;;4405820;29;20044;-70
2022/05/02 01:45:37;;;;;;;3.10;2.10;;;;;;;;;;4405599;29;20044;-69
2022/05/02 01:47:48;;;;;;;3.10;2.50;;;;;;;;;;4412767;28;20066;-70
2022/05/02 01:49:58;;;;;;;2.77;1.90;;;;;;;;;;4405095;29;32194;-69
2022/05/02 01:52:08;;;;;;;3.10;2.10;;;;;;;;;;4405737;29;20048;-70
2022/05/02 01:54:19;;;;;;;2.50;2.00;;;;;;;;;;4405890;29;20044;-69
2022/05/02 01:56:29;;;;;;;4.70;2.40;;;;;;;;;;4420209;28;20749;-70
2022/05/02 01:58:40;;;;;;;3.10;2.43;;;;;;;;;;4405342;29;20482;-70
2022/05/02 02:00:50;;;;;;;3.83;2.40;;;;;;;;;;4406778;29;20040;-69
2022/05/02 02:03:01;;;;;;;2.63;2.40;;;;;;;;;;4391137;29;20037;-69
2022/05/02 02:07:40;;;;;;;2.63;2.20;;;;;;;;;;4405228;29;20459;-70
2022/05/02 02:09:51;;;;;;;2.50;2.20;;;;;;;;;;4404530;29;32778;-69
2022/05/02 02:12:01;;;;;;;2.90;2.30;;;;;;;;;;4404016;28;20041;-69
2022/05/02 02:14:12;;;;;;;3.40;2.20;;;;;;;;;;4406190;28;20036;-68
2022/05/02 02:16:22;;;;;;;3.30;2.30;;;;;;;;;;4403419;29;20501;-69
2022/05/02 02:18:32;;;;;;;4.00;2.53;;;;;;;;;;4404552;29;20268;-69
2022/05/02 02:20:45;;;;;;;3.27;2.33;;;;;;;;;;4405977;29;20268;-69
2022/05/02 02:22:55;;;;;;;2.45;2.00;;;;;;;;;;4405012;29;20036;-69
2022/05/02 02:25:07;;;;;;;2.67;2.28;;;;;;;;;;4413324;29;20599;-70
2022/05/02 02:27:18;;;;;;;2.83;2.10;;;;;;;;;;4404528;29;20036;-69
2022/05/02 02:29:28;;;;;;;2.83;2.07;;;;;;;;;;4404091;28;20498;-70
2022/05/02 02:31:39;;;;;;;2.60;2.10;;;;;;;;;;4405529;29;20055;-70
2022/05/02 02:33:49;;;;;;;3.87;2.37;;;;;;;;;;4404953;28;40785;-69
2022/05/02 02:35:59;;;;;;;3.07;2.13;;;;;;;;;;4404166;29;29434;-70
2022/05/02 02:38:12;;;;;;;2.67;2.00;;;;;;;;;;4404446;29;22194;-70
2022/05/02 02:40:23;;;;;;;4.00;2.15;;;;;;;;;;4404115;29;20044;-69
2022/05/02 02:42:33;;;;;;;2.80;2.20;;;;;;;;;;4412955;29;20050;-69
2022/05/02 02:44:44;;;;;;;3.73;2.43;;;;;;;;;;4403801;28;20705;-70
2022/05/02 02:46:54;;;;;;;3.33;2.33;;;;;;;;;;4403884;29;27807;-70
2022/05/02 02:49:05;;;;;;;2.87;2.57;;;;;;;;;;4404282;29;20033;-70
2022/05/02 02:51:15;;;;;;;2.97;2.20;;;;;;;;;;4405097;29;20043;-69
2022/05/02 02:53:25;;;;;;;3.60;2.37;;;;;;;;;;4403780;29;20043;-70
2022/05/02 02:55:36;;;;;;;2.77;2.17;;;;;;;;;;4404805;28;20492;-70
2022/05/02 02:57:46;;;;;;;2.17;1.87;;;;;;;;;;4405446;29;20071;-70
2022/05/02 02:59:57;;;;;;;3.83;2.30;;;;;;;;;;4403756;29;20043;-70
2022/05/02 03:02:07;;;;;;;3.10;2.30;;;;;;;;;;4404432;29;41634;-70
2022/05/02 03:06:47;;;;;;;3.88;2.40;;;;;;;;;;4407283;29;20036;-70
2022/05/02 03:08:57;;;;;;;2.87;2.10;;;;;;;;;;4404504;29;20485;-70
2022/05/02 03:11:08;;;;;;;3.43;2.30;;;;;;;;;;4404314;29;36604;-70
2022/05/02 03:13:18;;;;;;;2.97;2.20;;;;;;;;;;4405866;29;20041;-70
2022/05/02 03:15:29;;;;;;;2.83;2.30;;;;;;;;;;4404352;29;20036;-70
2022/05/02 03:17:39;;;;;;;2.27;1.80;;;;;;;;;;4405697;29;20044;-69
2022/05/02 03:19:50;;;;;;;2.10;1.90;;;;;;;;;;4404342;29;21630;-69
2022/05/02 03:22:00;;;;;;;3.07;2.23;;;;;;;;;;4404837;29;20172;-69
2022/05/02 03:24:10;;;;;;;2.43;2.17;;;;;;;;;;4411698;28;20712;-70
2022/05/02 03:26:21;;;;;;;2.90;2.20;;;;;;;;;;4403707;29;20041;-70
2022/05/02 03:28:31;;;;;;;2.80;2.30;;;;;;;;;;4403719;29;20040;-70
2022/05/02 03:30:42;;;;;;;3.17;2.13;;;;;;;;;;4403740;29;44627;-70
2022/05/02 03:32:52;;;;;;;2.20;2.00;;;;;;;;;;4403374;29;20040;-70
2022/05/02 03:35:03;;;;;;;2.93;2.43;;;;;;;;;;4404112;28;20794;-70
2022/05/02 03:37:14;;;;;;;2.45;2.00;;;;;;;;;;4403813;28;20041;-70
2022/05/02 03:39:24;;;;;;;3.00;2.17;;;;;;;;;;4406482;29;20039;-70
2022/05/02 03:41:35;;;;;;;3.10;2.30;;;;;;;;;;4402628;29;20884;-70
2022/05/02 03:43:45;;;;;;;3.07;2.03;;;;;;;;;;4405156;28;20037;-70
2022/05/02 03:45:55;;;;;;;2.67;2.07;;;;;;;;;;4406767;29;20041;-70
2022/05/02 03:48:06;;;;;;;2.53;2.00;;;;;;;;;;4403785;29;20051;-70
2022/05/02 03:50:16;;;;;;;2.10;1.90;;;;;;;;;;4405856;29;20614;-69
2022/05/02 03:52:27;;;;;;;3.03;2.10;;;;;;;;;;4411818;29;20401;-70
2022/05/02 03:54:37;;;;;;;2.57;2.30;;;;;;;;;;4411143;29;38270;-70
2022/05/02 03:56:48;;;;;;;2.60;1.97;;;;;;;;;;4404246;29;26527;-70
2022/05/02 03:58:58;;;;;;;2.40;2.20;;;;;;;;;;4405352;29;20040;-70
2022/05/02 04:01:09;;;;;;;3.80;2.23;;;;;;;;;;4406589;29;20032;-70
2022/05/02 04:03:19;;;;;;;3.07;2.20;;;;;;;;;;4403510;29;20036;-69
2022/05/02 04:05:30;;;;;;;3.57;2.20;;;;;;;;;;4405383;29;20036;-69
2022/05/02 04:07:40;;;;;;;3.17;2.10;;;;;;;;;;4404625;29;20173;-69
2022/05/02 04:09:51;;;;;;;3.07;2.20;;;;;;;;;;4404329;29;20024;-69
2022/05/02 04:12:01;;;;;;;3.17;2.17;;;;;;;;;;4402746;29;20055;-70
2022/05/02 04:14:11;;;;;;;2.47;2.20;;;;;;;;;;4403482;28;20028;-69
2022/05/02 04:16:22;;;;;;;3.43;2.20;;;;;;;;;;4403437;29;20052;-69
2022/05/02 04:18:32;;;;;;;3.57;2.23;;;;;;;;;;4403430;29;20051;-69
2022/05/02 04:20:43;;;;;;;2.60;2.40;;;;;;;;;;4402926;29;23418;-69
2022/05/02 04:22:54;;;;;;;2.50;2.10;;;;;;;;;;4402629;28;20044;-69
2022/05/02 04:25:05;;;;;;;2.77;2.17;;;;;;;;;;4402852;29;20451;-70
2022/05/02 04:27:15;;;;;;;4.40;2.15;;;;;;;;;;4403478;29;20032;-70
2022/05/02 04:29:26;;;;;;;2.67;2.20;;;;;;;;;;4403725;29;20097;-70
2022/05/02 04:31:36;;;;;;;2.67;2.30;;;;;;;;;;4401445;29;20048;-70
2022/05/02 04:33:46;;;;;;;3.30;2.33;;;;;;;;;;4410165;29;20047;-70
2022/05/02 04:35:57;;;;;;;1.87;1.70;;;;;;;;;;4402346;28;20040;-69
2022/05/02 04:38:07;;;;;;;2.30;2.10;;;;;;;;;;4409891;29;20074;-70
2022/05/02 04:40:18;;;;;;;2.47;1.97;;;;;;;;;;4400266;29;35671;-70
2022/05/02 04:42:28;;;;;;;3.93;2.50;;;;;;;;;;4401585;29;20048;-70
2022/05/02 04:44:39;;;;;;;2.50;2.10;;;;;;;;;;4401635;29;20780;-70
2022/05/02 04:46:49;;;;;;;2.23;2.00;;;;;;;;;;4401602;29;38072;-69
2022/05/02 04:49:00;;;;;;;2.47;2.00;;;;;;;;;;4401769;29;20093;-70
2022/05/02 04:51:10;;;;;;;2.40;2.00;;;;;;;;;;4403127;29;20044;-69
2022/05/02 04:53:21;;;;;;;3.70;2.33;;;;;;;;;;4402000;28;20551;-70
2022/05/02 04:55:31;;;;;;;2.17;1.80;;;;;;;;;;4394010;29;20037;-70
2022/05/02 04:57:41;;;;;;;3.23;2.33;;;;;;;;;;4409262;28;20115;-70
2022/05/02 04:59:52;;;;;;;3.23;2.20;;;;;;;;;;4401300;29;20036;-70
2022/05/02 05:02:04;;;;;;;3.67;2.20;;;;;;;;;;4401347;29;20084;-70
2022/05/02 05:04:14;;;;;;;4.13;2.53;;;;;;;;;;4404124;29;20028;-70
2022/05/02 05:06:25;;;;;;;4.17;2.60;;;;;;;;;;4403978;29;20049;-70
2022/05/02 05:08:35;;;;;;;3.70;2.43;;;;;;;;;;4408097;29;20115;-70
2022/05/02 05:10:49;;;;;;;2.30;2.10;;;;;;;;;;4405467;29;20059;-70
2022/05/02 05:13:06;;;;;;;2.85;2.10;;;;;;;;;;4413027;29;20032;-70
2022/05/02 05:18:07;;;;;;;3.10;2.50;;;;;;;;;;4405173;29;20147;-70
2022/05/02 05:20:23;;;;;;;;;;;;;;;;;;4406110;29;20049;-70
2022/05/02 05:22:45;;;;;;;3.28;2.50;;;;;;;;;;4406776;28;19923;-70
2022/05/02 05:25:24;;;;;;;2.63;2.22;;;;;;;;;;4406378;29;20577;-70
2022/05/02 05:27:42;;;;;;;2.55;2.17;;;;;;;;;;4406916;29;20041;-70
2022/05/02 05:30:03;;;;;;;4.43;2.45;;;;;;;;;;4407986;29;20605;-70
2022/05/02 05:32:40;;;;;;;2.75;2.20;;;;;;;;;;4406061;29;20076;-70
2022/05/02 05:34:50;;;;;;;2.95;2.33;;;;;;;;;;4405437;29;20874;-70
2022/05/02 05:37:35;;;;;;;3.07;2.70;;;;;;;;;;4404856;29;20055;-70
2022/05/02 05:39:59;;;;;;;4.57;2.60;;;;;;;;;;4404119;29;20076;-70
2022/05/02 05:42:17;;;;;;;2.78;2.50;;;;;;;;;;4403728;29;20119;-70
2022/05/02 05:44:37;;;;;;;3.53;2.45;;;;;;;;;;4420565;28;20545;-70
2022/05/02 05:47:26;;;;;;;2.83;2.38;;;;;;;;;;4409143;28;20172;-70
2022/05/02 05:50:02;;;;;;;3.33;2.50;;;;;;;;;;4400681;29;20041;-70
2022/05/02 05:52:21;;;;;;;3.28;2.45;;;;;;;;;;4405375;29;20051;-71
2022/05/02 05:54:40;;;;;;;3.47;2.25;;;;;;;;;;4413255;29;20047;-70
2022/05/02 05:56:59;;;;;;;3.42;2.75;;;;;;;;;;4413085;29;20036;-70
2022/05/02 05:59:20;;;;;;;3.42;2.38;;;;;;;;;;4413714;29;20201;-70
2022/05/02 06:01:44;;;;;;;2.75;2.10;;;;;;;;;;4405012;29;20131;-70
2022/05/02 06:04:07;;;;;;;2.83;2.05;;;;;;;;;;4406644;29;20067;-70
2022/05/02 06:06:18;;;;;;;3.25;2.53;;;;;;;;;;4413569;29;20131;-70
2022/05/02 06:08:29;;;;;;;3.42;2.58;;;;;;;;;;4389062;29;20047;-70
2022/05/02 06:10:41;;;;;;;3.43;2.50;;;;;;;;;;4405738;29;20055;-70
2022/05/02 06:12:52;;;;;;;4.78;2.30;;;;;;;;;;4402979;29;20532;-70
2022/05/02 06:20:05;;;;;;;3.17;2.20;;;;;;;;;;4405693;29;20036;-70
2022/05/02 06:22:17;;;;;;;3.95;2.63;;;;;;;;;;4403952;29;20119;-69
2022/05/02 06:24:30;;;;;;;4.13;2.40;;;;;;;;;;4404138;29;20040;-70
2022/05/02 06:26:42;;;;;;;4.57;2.40;;;;;;;;;;4405012;28;20067;-69
2022/05/02 06:28:52;;;;;;;3.30;2.35;;;;;;;;;;4407114;29;20060;-69
2022/05/02 06:31:03;;;;;;;3.20;2.17;;;;;;;;;;4405240;29;20132;-68
2022/05/02 06:33:14;;;;;;;2.97;2.20;;;;;;;;;;4404042;29;20036;-69
2022/05/02 06:35:33;;;;;;;3.70;2.43;;;;;;;;;;4403849;29;20569;-69
2022/05/02 06:37:50;;;;;;;3.38;2.17;;;;;;;;;;4409480;28;20041;-69
2022/05/02 06:40:04;;;;;;;3.10;2.22;;;;;;;;;;4394409;29;20041;-69
2022/05/02 06:42:31;;;;;;;3.50;2.25;;;;;;;;;;4404512;29;20095;-69
2022/05/02 06:44:51;;;;;;;3.97;2.30;;;;;;;;;;4419986;28;20071;-69
2022/05/02 06:47:12;;;;;;;2.70;2.40;;;;;;;;;;4411794;29;20044;-69
2022/05/02 06:49:24;;;;;;;4.20;2.60;;;;;;;;;;4406142;29;20584;-69
2022/05/02 06:51:39;;;;;;;3.10;2.35;;;;;;;;;;4404176;29;20361;-69
2022/05/02 06:54:03;;;;;;;3.45;2.33;;;;;;;;;;4404367;29;20055;-70
2022/05/02 06:56:36;;;;;;;3.08;2.50;;;;;;;;;;4412433;29;20075;-70
2022/05/02 06:58:58;;;;;;;2.80;2.13;;;;;;;;;;4405523;29;20071;-70
2022/05/02 07:01:18;;;;;;;3.72;2.70;;;;;;;;;;4405146;29;20044;-70
2022/05/02 07:03:42;;;;;;;3.30;2.40;;;;;;;;;;4403958;29;20332;-70
2022/05/02 07:06:29;;;;;;;3.63;2.60;;;;;;;;;;4405622;29;20180;-70
2022/05/02 07:09:07;;;;;;;3.15;2.10;;;;;;;;;;4403882;28;20060;-70
2022/05/02 07:11:20;;;;;;;4.35;2.65;;;;;;;;;;4401274;29;20132;-70
2022/05/02 07:14:03;;;;;;;4.07;2.55;;;;;;;;;;4396546;29;20039;-70
2022/05/02 07:16:23;;;;;;;3.70;2.53;;;;;;;;;;4390667;29;20653;-70
2022/05/02 07:18:49;;;;;;;4.20;2.60;;;;;;;;;;4412431;29;20032;-70
2022/05/02 07:21:22;;;;;;;4.38;2.72;;;;;;;;;;4405568;29;20593;-70
2022/05/02 07:23:42;;;;;;;4.13;2.65;;;;;;;;;;4413408;29;20087;-70
2022/05/02 07:26:03;;;;;;;3.05;2.28;;;;;;;;;;4403859;29;20044;-70
2022/05/02 07:28:23;;;;;;;;;;;;;;;;;;4417966;28;20615;-70
2022/05/02 07:30:34;;;;;;;5.03;2.78;;;;;;;;;;4418895;28;19922;-70
2022/05/02 07:32:44;;;;;;;3.45;2.17;;;;;;;;;;4403240;29;20044;-70
2022/05/02 07:34:56;;;;;;;3.97;2.33;;;;;;;;;;4402482;29;20044;-70
2022/05/02 07:37:06;;;;;;;3.30;1.92;;;;;;;;;;4404376;29;20045;-70
2022/05/02 07:39:19;;;;;;;2.95;2.00;;;;;;;;;;4409752;29;20040;-70
2022/05/02 07:41:29;;;;;;;3.75;2.33;;;;;;;;;;4405943;28;20660;-70
2022/05/02 07:43:41;;;;;;;3.57;2.00;;;;;;;;;;4407196;28;20083;-70
2022/05/02 07:45:51;;;;;;;3.00;2.00;;;;;;;;;;4404447;29;20502;-70
2022/05/02 07:48:03;;;;;;;3.00;2.07;;;;;;;;;;4405101;29;21897;-70
2022/05/02 07:50:16;;;;;;;3.50;2.30;;;;;;;;;;4388606;29;20099;-70
2022/05/02 07:52:28;;;;;;;3.38;2.05;;;;;;;;;;4403811;29;20040;-70
2022/05/02 07:54:39;;;;;;;;;;;;;;;;;;4412686;29;20134;-70
2022/05/02 07:56:59;;;;;;;2.65;2.10;;;;;;;;;;4403451;28;19923;-70
2022/05/02 07:59:12;;;;;;;3.97;2.20;;;;;;;;;;4402678;29;21570;-70
2022/05/02 08:01:26;;;;;;;3.40;1.98;;;;;;;;;;4403817;29;25613;-70
2022/05/02 08:03:36;;;;;;;3.35;2.10;;;;;;;;;;4403662;28;20730;-70
2022/05/02 08:05:49;;;;;;;3.87;2.10;;;;;;;;;;4404938;29;20107;-70
2022/05/02 08:08:13;;;;;;;3.72;2.10;;;;;;;;;;4405005;29;20048;-68
2022/05/02 08:10:38;;;;;;;4.05;1.88;;;;;;;;;;4389437;29;20617;-69
2022/05/02 08:12:57;;;;;;;3.03;1.90;;;;;;;;;;4403041;29;20821;-69
2022/05/02 08:15:22;;;;;;;2.67;1.80;;;;;;;;;;4404908;29;21442;-69
2022/05/02 08:18:02;;;;;;;3.88;1.95;;;;;;;;;;4403582;28;20055;-69
2022/05/02 08:20:24;;;;;;;4.05;1.90;;;;;;;;;;4411515;29;20123;-69
2022/05/02 08:27:57;;;;;;;3.40;2.38;;;;;;;;;;4404097;29;20067;-69
2022/05/02 08:30:24;;;;;;;3.95;2.40;;;;;;;;;;4404333;29;20876;-69
2022/05/02 08:32:53;;;;;;;2.05;1.52;;;;;;;;;;4404603;29;20123;-69
2022/05/02 08:35:09;;;;;;;2.80;2.20;;;;;;;;;;4403817;29;20036;-69
2022/05/02 08:37:28;;;;;;;3.05;2.35;;;;;;;;;;4404691;29;20036;-69
2022/05/02 08:40:00;;;;;;;5.80;2.90;;;;;;;;;;4407341;29;20050;-70
2022/05/02 08:43:04;;;;;;;4.35;2.47;;;;;;;;;;4407757;29;20114;-69
2022/05/02 08:45:56;;;;;;;2.95;2.45;;;;;;;;;;4377108;29;20645;-70
2022/05/02 08:48:17;;;;;;;3.42;2.65;;;;;;;;;;4347165;29;20041;-69
2022/05/02 08:50:49;;;;;;;5.28;2.90;;;;;;;;;;4376410;29;20333;-69
2022/05/02 08:53:24;;;;;;;3.38;2.35;;;;;;;;;;4379234;29;20053;-69
2022/05/02 08:56:06;;;;;;;4.32;2.60;;;;;;;;;;4361018;29;20094;-69
2022/05/02 08:58:39;;;;;;;5.53;2.92;;;;;;;;;;4375385;29;20081;-69
2022/05/02 09:01:07;;;;;;;3.63;2.50;;;;;;;;;;4375453;29;20585;-70
2022/05/02 09:03:45;;;;;;;4.75;2.55;;;;;;;;;;4360647;29;20057;-70
2022/05/02 09:06:44;;;;;;;4.95;2.70;;;;;;;;;;4348301;29;20034;-69
2022/05/02 09:09:27;;;;;;;3.55;2.35;;;;;;;;;;4367212;29;20053;-70
2022/05/02 09:12:18;;;;;;;3.90;2.85;;;;;;;;;;4374146;29;20549;-69
2022/05/02 09:14:29;;;;;;;3.92;2.53;;;;;;;;;;4377913;29;20129;-69
2022/05/02 09:17:24;;;;;;;4.83;3.07;;;;;;;;;;4401028;29;20128;-69
2022/05/02 09:20:12;;;;;;;4.55;2.90;;;;;;;;;;4406124;29;20040;-69
2022/05/02 09:22:44;;;;;;;4.30;2.50;;;;;;;;;;4405713;29;20100;-69
2022/05/02 09:25:02;;;;;;;4.30;2.78;;;;;;;;;;4406862;29;20044;-69
2022/05/02 09:27:31;;;;;;;3.65;2.30;;;;;;;;;;4406301;29;20043;-69
2022/05/02 09:30:12;;;;;;;3.83;2.70;;;;;;;;;;4406361;29;20139;-69
2022/05/02 09:32:46;;;;;;;4.67;2.83;;;;;;;;;;4407126;28;20043;-69
2022/05/02 09:35:03;;;;;;;4.53;2.83;;;;;;;;;;4407124;29;20072;-69
2022/05/02 09:37:32;;;;;;;3.42;2.60;;;;;;;;;;4407238;29;20048;-69
2022/05/02 09:39:48;;;;;;;4.28;2.70;;;;;;;;;;4405411;29;21039;-69
2022/05/02 09:42:20;;;;;;;4.38;2.85;;;;;;;;;;4404896;29;20092;-69
2022/05/02 09:50:07;;;;;;;3.80;2.78;;;;;;;;;;4405855;29;20036;-69
2022/05/02 09:52:52;;;;;;;3.63;2.70;;;;;;;;;;4404824;28;20048;-69
2022/05/02 09:57:59;;;;;;;4.85;3.00;;;;;;;;;;4398035;29;20573;-69
2022/05/02 10:02:45;;;;;;;4.25;2.60;;;;;;;;;;4412093;29;20033;-69
2022/05/02 10:05:05;;;;;;;5.32;2.85;;;;;;;;;;4405244;28;20179;-69
2022/05/02 10:07:18;;;;;;;5.07;3.20;;;;;;;;;;4413174;28;20857;-69
2022/05/02 10:09:47;;;;;;;4.32;2.83;;;;;;;;;;4411760;29;20033;-69
2022/05/02 10:12:18;;;;;;;3.67;2.78;;;;;;;;;;4405433;29;20044;-70
2022/05/02 10:15:06;;;;;;;3.92;2.92;;;;;;;;;;4404989;29;20204;-69
2022/05/02 10:17:44;;;;;;;4.03;2.85;;;;;;;;;;4405123;29;20037;-69
2022/05/02 10:20:04;;;;;;;3.63;2.80;;;;;;;;;;4404648;29;20040;-69
2022/05/02 10:22:29;;;;;;;4.15;2.70;;;;;;;;;;4404822;29;20036;-69
2022/05/02 10:24:49;;;;;;;4.40;2.75;;;;;;;;;;4413164;29;20048;-69
2022/05/02 10:27:11;;;;;;;4.85;3.00;;;;;;;;;;4413024;29;20627;-70
2022/05/02 10:29:44;;;;;;;5.25;3.03;;;;;;;;;;4405562;29;20168;-69
2022/05/02 10:32:03;;;;;;;4.45;2.90;;;;;;;;;;4405337;29;20052;-69
2022/05/02 10:34:17;;;;;;;4.03;2.85;;;;;;;;;;4412119;29;20040;-69
2022/05/02 10:36:56;;;;;;;3.05;2.45;;;;;;;;;;4408502;28;20993;-69
2022/05/02 10:39:19;;;;;;;4.88;2.60;;;;;;;;;;4403790;29;20036;-69
2022/05/02 10:41:52;;;;;;;5.43;3.17;;;;;;;;;;4403200;29;20578;-69
2022/05/02 10:44:04;;;;;;;4.13;2.72;;;;;;;;;;4404918;28;20062;-69
2022/05/02 10:46:15;;;;;;;3.58;2.80;;;;;;;;;;4403445;28;20051;-69
2022/05/02 10:48:41;;;;;;;4.95;3.33;;;;;;;;;;4412890;29;20040;-70
2022/05/02 10:51:29;;;;;;;4.30;2.85;;;;;;;;;;4411465;29;20044;-69
2022/05/02 10:54:01;;;;;;;4.22;2.83;;;;;;;;;;4403399;29;20093;-69
2022/05/02 10:56:35;;;;;;;4.72;2.97;;;;;;;;;;4402654;29;20639;-69
2022/05/02 10:58:46;;;;;;;4.32;3.10;;;;;;;;;;4405238;29;20032;-69
2022/05/02 11:01:06;;;;;;;4.88;3.15;;;;;;;;;;4390308;29;20305;-69
2022/05/02 11:03:35;;;;;;;4.43;3.00;;;;;;;;;;4405713;29;20560;-69
2022/05/02 11:06:28;;;;;;;3.80;3.15;;;;;;;;;;4409459;28;20214;-69
2022/05/02 11:08:49;;;;;;;4.68;3.10;;;;;;;;;;4392549;28;20084;-69
2022/05/02 11:11:21;;;;;;;4.55;2.90;;;;;;;;;;4412172;29;20040;-69
2022/05/02 11:13:36;;;;;;;4.65;2.70;;;;;;;;;;4405504;29;20100;-69
2022/05/02 11:16:00;;;;;;;5.13;3.25;;;;;;;;;;4406547;29;20135;-69
2022/05/02 11:21:41;;;;;;;6.63;3.30;;;;;;;;;;4397213;28;20624;-69
2022/05/02 11:24:04;;;;;;;3.88;3.10;;;;;;;;;;4387178;29;20139;-68
2022/05/02 11:26:37;;;;;;;4.88;3.08;;;;;;;;;;4400076;29;20137;-69
2022/05/02 11:29:00;;;;;;;3.65;2.90;;;;;;;;;;4399169;29;20160;-69
2022/05/02 11:31:21;;;;;;;3.28;2.72;;;;;;;;;;4402910;29;20051;-69
2022/05/02 11:33:42;;;;;;;4.95;2.83;;;;;;;;;;4401036;29;20046;-69
2022/05/02 11:35:55;;;;;;;3.75;2.70;;;;;;;;;;4408653;29;20040;-69
2022/05/02 11:38:19;;;;;;;4.18;2.80;;;;;;;;;;4414085;28;20066;-68
2022/05/02 11:40:45;;;;;;;3.30;2.70;;;;;;;;;;4399271;29;20051;-68
2022/05/02 11:42:56;;;;;;;4.32;2.90;;;;;;;;;;4399091;29;20159;-68
2022/05/02 11:45:10;;;;;;;4.28;2.90;;;;;;;;;;4400476;28;20037;-68
2022/05/02 11:48:14;;;;;;;4.72;2.80;;;;;;;;;;4405656;29;20028;-68
2022/05/02 11:50:26;;;;;;;3.67;2.70;;;;;;;;;;4373712;29;20172;-68
2022/05/02 11:52:38;;;;;;;4.00;2.53;;;;;;;;;;4394271;28;20248;-68
2022/05/02 11:54:48;;;;;;;;;;;;;;;;;;4399839;29;20161;-68
2022/05/02 11:57:28;;;;;;;5.05;3.25;;;;;;;;;;4398119;29;19975;-68
2022/05/02 11:59:58;;;;;;;4.75;3.08;;;;;;;;;;4398644;29;20094;-68
2022/05/02 12:02:21;;;;;;;5.60;2.60;;;;;;;;;;4400013;29;20040;-68
2022/05/02 12:04:36;;;;;;;4.70;2.95;;;;;;;;;;4399578;29;20095;-68
2022/05/02 12:06:57;;;;;;;3.17;2.67;;;;;;;;;;4399773;28;20083;-67
2022/05/02 12:09:19;;;;;;;3.75;2.75;;;;;;;;;;4413485;28;20146;-68
2022/05/02 12:11:31;;;;;;;4.55;2.90;;;;;;;;;;4377551;29;20157;-68
2022/05/02 12:13:45;;;;;;;5.07;3.08;;;;;;;;;;4390781;29;20036;-68
2022/05/02 12:16:15;;;;;;;3.35;2.40;;;;;;;;;;4398884;29;20045;-68
2022/05/02 12:18:52;;;;;;;5.15;2.85;;;;;;;;;;4398223;29;20033;-68
2022/05/02 12:21:04;;;;;;;5.93;3.00;;;;;;;;;;4388114;29;20032;-69
2022/05/02 12:23:21;;;;;;;5.00;2.80;;;;;;;;;;4399622;29;20662;-69
2022/05/02 12:25:32;;;;;;;3.35;2.50;;;;;;;;;;4398983;29;20048;-69
2022/05/02 12:27:48;;;;;;;2.80;2.35;;;;;;;;;;4400203;29;20585;-69
2022/05/02 12:30:01;;;;;;;5.78;2.70;;;;;;;;;;4402758;28;20165;-68
2022/05/02 12:32:13;;;;;;;4.05;3.00;;;;;;;;;;4399637;29;20082;-69
2022/05/02 12:34:34;;;;;;;;;;;;;;;;;;4402515;29;20147;-69
2022/05/02 12:36:44;;;;;;;4.88;2.88;;;;;;;;;;4398818;29;19969;-69
2022/05/02 12:39:01;;;;;;;3.80;2.70;;;;;;;;;;4399630;29;20111;-69
2022/05/02 12:41:12;;;;;;;5.55;3.10;;;;;;;;;;4407009;29;20051;-68
2022/05/02 12:43:29;;;;;;;3.13;2.42;;;;;;;;;;4400022;29;20071;-69
2022/05/02 12:45:46;;;;;;;4.45;2.92;;;;;;;;;;4399234;28;20899;-68
2022/05/02 12:48:00;;;;;;;4.00;3.00;;;;;;;;;;4398594;29;20051;-69
2022/05/02 12:50:12;;;;;;;3.88;3.00;;;;;;;;;;4407162;29;20716;-68
2022/05/02 12:52:23;;;;;;;;;;;;;;;;;;4399565;29;20055;-68
2022/05/02 12:54:34;;;;;;;5.38;2.88;;;;;;;;;;4399127;29;20442;-68
2022/05/02 13:00:30;;;;;;;3.97;2.60;;;;;;;;;;4400821;29;20036;-68
2022/05/02 13:01:49;;;;;;;5.07;3.10;;;;;;;;;;4388783;29;20032;-69
2022/05/02 13:04:02;;;;;;;3.58;2.75;;;;;;;;;;4400949;29;20040;-69
2022/05/02 13:06:13;;;;;;;2.92;2.45;;;;;;;;;;4399108;29;20040;-69
2022/05/02 13:08:34;;;;;;;4.93;2.90;;;;;;;;;;4401007;29;20600;-68
2022/05/02 13:10:45;;;;;;;4.13;2.95;;;;;;;;;;4399699;29;20036;-68
2022/05/02 13:12:59;;;;;;;4.15;2.92;;;;;;;;;;4400216;29;20294;-68
2022/05/02 13:15:10;;;;;;;3.58;2.60;;;;;;;;;;4401524;29;20044;-68
2022/05/02 13:17:22;;;;;;;4.37;2.97;;;;;;;;;;4398873;29;20493;-69
2022/05/02 13:19:34;;;;;;;3.97;2.80;;;;;;;;;;4390552;29;20109;-69
2022/05/02 13:21:55;;;;;;;3.53;2.70;;;;;;;;;;4401477;29;20228;-70
2022/05/02 13:24:14;;;;;;;6.05;3.08;;;;;;;;;;4408779;29;20131;-69
2022/05/02 13:26:43;;;;;;;5.53;3.03;;;;;;;;;;4409746;29;20036;-69
2022/05/02 13:29:05;;;;;;;4.10;2.90;;;;;;;;;;4402467;28;20642;-68
2022/05/02 13:31:32;;;;;;;4.22;2.97;;;;;;;;;;4405463;28;20040;-68
2022/05/02 13:33:49;;;;;;;3.42;2.50;;;;;;;;;;4402261;29;20580;-69
2022/05/02 13:36:05;;;;;;;4.10;2.67;;;;;;;;;;4405865;29;20048;-69
2022/05/02 13:38:25;;;;;;;3.58;2.80;;;;;;;;;;4403331;29;20037;-69
2022/05/02 13:40:44;;;;;;;3.53;2.55;;;;;;;;;;4405657;29;20105;-68
2022/05/02 13:42:57;;;;;;;3.85;2.70;;;;;;;;;;4418787;28;20039;-69
2022/05/02 13:45:32;;;;;;;3.00;2.42;;;;;;;;;;4401977;29;20571;-69
2022/05/02 13:47:50;;;;;;;4.28;2.63;;;;;;;;;;4402695;29;20864;-69
2022/05/02 13:50:11;;;;;;;3.72;2.88;;;;;;;;;;4397045;28;20038;-69
2022/05/02 13:52:50;;;;;;;4.13;3.03;;;;;;;;;;4402077;29;20040;-68
2022/05/02 13:55:10;;;;;;;5.07;2.95;;;;;;;;;;4403402;29;20403;-69
2022/05/02 13:57:42;;;;;;;3.70;2.78;;;;;;;;;;4401350;29;20040;-69
2022/05/02 13:59:59;;;;;;;5.00;3.03;;;;;;;;;;4401388;29;20048;-69
2022/05/02 14:02:22;;;;;;;3.90;2.65;;;;;;;;;;4401239;29;21222;-68
2022/05/02 14:04:40;;;;;;;3.28;2.50;;;;;;;;;;4400732;29;20045;-69
2022/05/02 14:09:09;;;;;;;3.30;2.50;;;;;;;;;;4387072;29;21057;-68
2022/05/02 14:11:20;;;;;;;3.63;2.70;;;;;;;;;;4402374;29;20075;-68
2022/05/02 14:13:31;;;;;;;3.97;2.77;;;;;;;;;;4401744;29;20107;-67
2022/05/02 14:15:44;;;;;;;4.00;2.72;;;;;;;;;;4399637;28;20403;-67
2022/05/02 14:17:55;;;;;;;4.05;2.95;;;;;;;;;;4402884;29;20044;-67
2022/05/02 14:20:11;;;;;;;;;;;;;;;;;;4401825;29;20086;-67
2022/05/02 14:22:34;;;;;;;4.50;2.60;;;;;;;;;;4399994;29;19927;-67
2022/05/02 14:24:46;;;;;;;3.63;2.70;;;;;;;;;;4397757;29;20119;-66
2022/05/02 14:26:58;;;;;;;4.00;2.67;;;;;;;;;;4401011;29;20039;-67